Airfield :
LOGIN :

Register | Disclaimer

   EN    FR    IT 

 










Legend :    VFR   Marginal VFR   IFR   Intensive IFR   Very Intensive IFR
Visi :
Ceiling :
>= 8 km
>= 3000ft
5 to 8 km
1000 to 3000 ft
1500m to 5 km
500 to 1000 ft
800 to 1500m
200 to 500 ft
< 800m
< 200 ft
Symbols :   Thunderstorms  Fog  Heavy snow  Heavy precipitations  Wind > 20 kt
SIGMETs :     Misc.  Thunderstorms  Icing  Turbulence  Mountain Waves  Volcanic Ashes






- Airport Elevation : 1674 ft
- IATA code : BRN


LSZB - Bern Belp

CURRENT METAR :
  • 082250Z AUTO 17002KT 0650 R14/1500U SN VV004 00/M00 Q1003 REFZDZ

EXPIRED METARs :
  • 082220Z AUTO 17002KT 0600 R14/1300U FG VV002 00/M00 Q1003 RESN
  • 082150Z AUTO 21002KT 0750 R14/1400U FZDZFG FEW002 00/M00 Q1003 RESN
  • 082120Z AUTO 31001KT 0500 R14/1300U SN VV002 00/M00 Q1003 REFZDZ
  • 082050Z AUTO 16001KT 0750 R14/1700U FG SCT001 SCT002 00/M00 Q1003 RESN
  • 082020Z AUTO 00000KT 1000 R14/P2000U BCFG BKN006 BKN008 00/M00 Q1002

TAF TAF LSZB
Valid from the 08 at 15:00 until the 09 at 00:00 UTC


081425Z 0815/0824 12005KT 4000 -RASN SCT004 BKN008
PROB30
TEMPO 0815/0824 2500 -SN SCT002 BKN004
ATIS : +41 22 417 40 76



MET'MAP, your aeronautical weather chart ! - Copyright ORBIFLY December 2007 - Disclaimer

ORBIFLY MET'MAP TEAM :

Programming & Development : Alexandra Zaïnal
Concept & original design : Baudouin d'Aumeries
Assistance for programming : Marc-Olivier Méhu
Technical & hardware support : Manuel Goepfert

Contact : metmap@orbifly.com




SOURCES & CREDITS :

   NOAA